Florence, MT (59833)

2:04 AM MDT on August 04, 2015 (GMT -0600)
MPG Ranch - South Baldy Ridge | | Change Station
CLOSE
Current Station
Personal Weather Station
Location: Florence, MT
Elevation: 4911 ft
Nearby Weather Stations

Elev 4911 ft 46.69 °N, 113.99 °W | Updated 14 minutes ago

Mostly Cloudy
Mostly Cloudy
71.2 °F
Feels Like 76 °F
N
11.0
Wind Variable Wind from NW
Gusts 18.0 mph

Today
High -- | Low -- °F
--% Chance of Precip.
Yesterday
High -- | Low -- °F
Precip. -- in
6:20 AM 9:03 PM
Waning Gibbous, 80% visible
Pressure 29.82 in
Visibility 10.0 miles
Clouds Mostly Cloudy 11000 ft
Heat Index 76 °F
Dew Point 38 °F
Humidity 30%
Rainfall 0.00 in
Snow Depth Not available.
UV 0 out of 12
Pollen 6.20 out of 12
Air Quality Not available.
Flu Activity Not available.
METAR KMSO 040753Z AUTO 25003KT 10SM BKN110 22/06 A2991 RMK AO2 SLP098 T02220056

More Conditions Fewer Conditions

Pressure 29.82 in
Visibility 10.0 miles
Clouds Mostly Cloudy 11000 ft
Heat Index 76 °F
Dew Point 38 °F
Humidity 30%
Rainfall 0.00 in
Snow Depth Not available.
UV 0 out of 12
Pollen 6.20 out of 12
Air Quality Not available.
Flu Activity Not available.
METAR KMSO 040753Z AUTO 25003KT 10SM BKN110 22/06 A2991 RMK AO2 SLP098 T02220056

More Conditions Fewer Conditions

10-Day Weather Forecast

×

Almanac

Astronomy

Aug. 04, 2015 Rise Set
Actual Time
Civil Twilight
Nautical Twilight
Astronomical Twilight
Moon
Length of Visible Light
Length of Day
Tomorrow will be .
, % of the Moon is Illuminated

Today's Extremes

State Highs State Lows

Community

WunderPhotos

Upload Photos

1,843,877 photos uploaded!

WunderBlogs® & News

Nearby

Air Quality

  Air Quality AQ Index Pollutant
Not available.

Snow Depth

Station Depth Elevation

Earthquake Activity

City Distance Mag. Time & Date
Minimum magnitude displayed is 2.5.

Coastal Water Temperatures

Place Temperature

Stations

Nearby Weather Stations

Station Location Temp. Windchill Dew Point Humidity Wind Precip. Elev Updated Type